createdAt,value
2023-06-29T00:00:04.641Z,22.30
2023-06-29T00:03:01.041Z,22.30
2023-06-29T00:05:41.043Z,22.30
2023-06-29T00:08:14.739Z,22.10
2023-06-29T00:10:56.648Z,22.30
2023-06-29T00:13:41.723Z,22.20
2023-06-29T00:16:32.578Z,22.10
2023-06-29T00:19:40.436Z,22.00
2023-06-29T00:22:21.883Z,22.00
2023-06-29T00:25:14.566Z,22.00
2023-06-29T00:27:46.502Z,22.00
2023-06-29T00:30:17.402Z,22.00
2023-06-29T00:35:41.502Z,21.90
2023-06-29T00:38:41.049Z,22.00
2023-06-29T00:41:38.551Z,22.00
2023-06-29T00:44:19.139Z,22.00
2023-06-29T00:50:00.218Z,21.90
2023-06-29T00:52:59.468Z,22.00
2023-06-29T00:55:49.160Z,21.90
2023-06-29T00:58:27.667Z,21.90
2023-06-29T01:01:18.260Z,21.90
2023-06-29T01:04:01.326Z,21.90
2023-06-29T01:06:43.495Z,21.90
2023-06-29T01:09:27.632Z,21.90
2023-06-29T01:12:03.152Z,21.90
2023-06-29T01:14:39.064Z,22.00
2023-06-29T01:17:26.679Z,21.90
2023-06-29T01:20:28.606Z,21.80
2023-06-29T01:23:17.428Z,21.80
2023-06-29T01:26:18.430Z,21.90
2023-06-29T01:29:01.602Z,21.90
2023-06-29T01:31:43.113Z,21.90
2023-06-29T01:37:17.460Z,22.00
2023-06-29T01:39:53.329Z,21.90
2023-06-29T01:42:44.350Z,21.90
2023-06-29T01:45:29.100Z,22.00
2023-06-29T01:48:23.404Z,21.90
2023-06-29T01:51:23.487Z,21.90
2023-06-29T01:53:54.423Z,21.90
2023-06-29T01:56:47.613Z,21.90
2023-06-29T01:59:40.260Z,21.90
2023-06-29T02:02:19.355Z,21.80
2023-06-29T02:05:25.656Z,21.90
2023-06-29T02:08:06.135Z,21.80
2023-06-29T02:10:58.434Z,21.80
2023-06-29T02:13:31.239Z,21.80
2023-06-29T02:19:04.655Z,21.70
2023-06-29T02:21:54.153Z,21.80
2023-06-29T02:24:51.080Z,21.70
2023-06-29T02:27:25.207Z,21.70
2023-06-29T02:30:16.827Z,21.70
2023-06-29T02:33:01.831Z,21.70
2023-06-29T02:35:52.439Z,21.60
2023-06-29T02:38:29.882Z,21.60
2023-06-29T02:41:34.812Z,21.60
2023-06-29T02:44:44.768Z,21.60
2023-06-29T02:47:45.221Z,21.70
2023-06-29T02:50:39.312Z,21.50
2023-06-29T02:53:17.356Z,21.40
2023-06-29T02:56:08.201Z,21.30
2023-06-29T02:59:09.436Z,21.50
2023-06-29T03:01:52.150Z,21.50
2023-06-29T03:07:44.998Z,21.50
2023-06-29T03:10:35.150Z,21.50
2023-06-29T03:13:27.045Z,21.50
2023-06-29T03:19:56.459Z,21.50
2023-06-29T03:22:54.156Z,21.50
2023-06-29T03:26:14.712Z,21.50
2023-06-29T03:37:46.546Z,21.40
2023-06-29T03:41:02.631Z,21.30
2023-06-29T03:47:47.272Z,21.40
2023-06-29T03:53:43.290Z,21.20
2023-06-29T03:56:47.096Z,21.20
2023-06-29T04:06:31.741Z,21.10
2023-06-29T04:09:45.515Z,21.20
2023-06-29T04:12:20.292Z,21.00
2023-06-29T04:15:06.996Z,21.10
2023-06-29T04:17:59.022Z,21.10
2023-06-29T04:21:29.850Z,21.00
2023-06-29T04:24:34.161Z,21.10
2023-06-29T04:30:42.691Z,21.00
2023-06-29T04:33:56.680Z,21.00
2023-06-29T04:36:36.010Z,21.00
2023-06-29T04:39:26.989Z,21.00
2023-06-29T04:43:03.202Z,21.00
2023-06-29T04:59:30.685Z,21.00
2023-06-29T05:12:18.544Z,21.00
2023-06-29T05:14:52.341Z,21.00
2023-06-29T05:18:08.199Z,21.00
2023-06-29T05:23:49.701Z,21.00
2023-06-29T05:29:32.353Z,21.00
2023-06-29T05:32:33.519Z,21.10
2023-06-29T05:35:50.057Z,21.10
2023-06-29T05:38:52.624Z,21.10
2023-06-29T05:42:05.046Z,21.10
2023-06-29T05:45:26.148Z,21.10
2023-06-29T05:48:34.025Z,21.00
2023-06-29T05:51:11.845Z,21.10
2023-06-29T05:53:58.373Z,21.00
2023-06-29T05:56:29.695Z,21.00
2023-06-29T05:59:09.124Z,21.00
2023-06-29T06:01:38.780Z,21.10
2023-06-29T06:04:11.689Z,21.00
2023-06-29T06:06:48.652Z,21.00
2023-06-29T06:09:23.830Z,21.00
2023-06-29T06:11:56.149Z,21.10
2023-06-29T06:14:24.610Z,20.90
2023-06-29T06:17:07.360Z,21.20
2023-06-29T06:19:43.245Z,21.10
2023-06-29T06:22:13.333Z,21.20
2023-06-29T06:24:43.371Z,21.20
2023-06-29T06:27:19.781Z,21.20
2023-06-29T06:29:50.541Z,21.30
2023-06-29T06:32:22.730Z,21.30
2023-06-29T06:34:53.462Z,21.30
2023-06-29T06:37:32.088Z,21.40
2023-06-29T06:40:02.048Z,21.40
2023-06-29T06:46:05.958Z,21.40
2023-06-29T06:49:05.173Z,21.50
2023-06-29T06:51:37.243Z,21.50
2023-06-29T06:54:06.565Z,21.50
2023-06-29T06:56:59.292Z,21.70
2023-06-29T06:59:59.369Z,21.80
2023-06-29T07:03:11.653Z,21.80
2023-06-29T07:05:43.677Z,21.80
2023-06-29T07:08:46.064Z,21.90
2023-06-29T07:15:34.499Z,22.10
2023-06-29T07:18:14.082Z,22.10
2023-06-29T07:26:23.551Z,22.10
2023-06-29T07:29:14.514Z,22.10
2023-06-29T07:31:58.795Z,22.10
2023-06-29T07:37:26.774Z,22.10
2023-06-29T07:40:14.203Z,22.20
2023-06-29T07:43:14.049Z,22.30
2023-06-29T07:45:53.687Z,22.50
2023-06-29T07:48:36.203Z,22.70
2023-06-29T07:51:14.641Z,22.70
2023-06-29T07:54:06.775Z,22.80
2023-06-29T07:59:18.260Z,22.90
2023-06-29T08:01:55.780Z,23.00
2023-06-29T08:07:41.660Z,23.20
2023-06-29T08:10:30.699Z,23.20
2023-06-29T08:13:06.097Z,23.20
2023-06-29T08:15:41.150Z,23.10
2023-06-29T08:18:22.789Z,23.10
2023-06-29T08:20:55.441Z,23.00
2023-06-29T08:23:29.243Z,22.90
2023-06-29T08:26:07.775Z,23.10
2023-06-29T08:29:00.664Z,23.00
2023-06-29T08:31:38.800Z,23.00
2023-06-29T08:34:17.200Z,23.10
2023-06-29T08:37:02.080Z,23.20
2023-06-29T08:39:42.597Z,23.20
2023-06-29T08:42:29.475Z,23.20
2023-06-29T08:45:07.697Z,23.10
2023-06-29T08:48:27.925Z,23.10
2023-06-29T08:51:32.214Z,23.20
2023-06-29T08:57:21.159Z,23.20
2023-06-29T08:59:54.094Z,23.30
2023-06-29T09:02:23.563Z,23.40
2023-06-29T09:05:01.621Z,23.40
2023-06-29T09:07:36.595Z,23.50
2023-06-29T09:10:25.600Z,23.50
2023-06-29T09:13:10.084Z,23.50
2023-06-29T09:15:46.892Z,23.50
2023-06-29T09:18:55.819Z,23.60
2023-06-29T09:21:37.360Z,23.60
2023-06-29T09:24:46.407Z,23.80
2023-06-29T09:27:35.385Z,24.00
2023-06-29T09:30:12.457Z,24.10
2023-06-29T09:32:50.849Z,24.20
2023-06-29T09:35:40.857Z,24.30
2023-06-29T09:38:11.706Z,24.40
2023-06-29T09:41:02.814Z,24.30
2023-06-29T09:43:47.857Z,24.50
2023-06-29T09:46:23.431Z,24.70
2023-06-29T09:53:02.609Z,24.80
2023-06-29T09:55:57.178Z,24.60
2023-06-29T10:09:09.542Z,24.30
2023-06-29T10:11:51.826Z,24.30
2023-06-29T10:14:33.581Z,24.40
2023-06-29T10:17:23.538Z,24.60
2023-06-29T10:19:56.573Z,24.70
2023-06-29T10:22:52.828Z,24.60
2023-06-29T10:25:38.605Z,24.60
2023-06-29T10:28:18.541Z,24.70
2023-06-29T10:31:09.623Z,24.70
2023-06-29T10:34:03.033Z,24.60
2023-06-29T10:36:50.457Z,24.60
2023-06-29T10:39:45.534Z,24.60
2023-06-29T10:42:59.410Z,24.70
2023-06-29T10:49:39.692Z,24.90
2023-06-29T10:52:29.370Z,25.00
2023-06-29T10:55:46.708Z,24.90
2023-06-29T10:58:30.282Z,24.80
2023-06-29T11:01:07.544Z,24.80
2023-06-29T11:03:37.493Z,24.70
2023-06-29T11:09:20.600Z,24.30
2023-06-29T11:12:16.999Z,24.30
2023-06-29T11:18:49.970Z,24.20
2023-06-29T11:21:52.511Z,24.10
2023-06-29T11:24:45.276Z,24.10
2023-06-29T11:28:08.519Z,24.00
2023-06-29T11:31:27.462Z,23.90
2023-06-29T11:37:49.042Z,23.90
2023-06-29T11:41:30.441Z,23.90
2023-06-29T11:47:53.933Z,24.00
2023-06-29T11:51:09.424Z,23.80
2023-06-29T11:57:36.025Z,23.70
2023-06-29T12:04:25.261Z,23.60
2023-06-29T12:07:19.864Z,23.70
2023-06-29T12:10:14.545Z,23.90
2023-06-29T12:13:17.513Z,23.90
2023-06-29T12:18:59.647Z,23.90
2023-06-29T12:21:40.610Z,23.80
2023-06-29T12:25:12.150Z,23.70
2023-06-29T12:27:52.599Z,23.70
2023-06-29T12:30:47.118Z,23.60
2023-06-29T12:33:17.740Z,23.60
2023-06-29T12:36:25.498Z,23.70
2023-06-29T12:39:28.567Z,23.70
2023-06-29T12:42:06.472Z,23.80
2023-06-29T12:44:42.213Z,23.70
2023-06-29T12:47:10.364Z,23.70
2023-06-29T12:49:44.806Z,23.90
2023-06-29T12:52:13.078Z,23.80
2023-06-29T12:54:46.326Z,23.90
2023-06-29T12:57:16.115Z,24.00
2023-06-29T12:59:44.275Z,23.90
2023-06-29T13:02:33.251Z,23.90
2023-06-29T13:08:27.256Z,24.10
2023-06-29T13:11:06.088Z,24.00
2023-06-29T13:13:46.522Z,23.80
2023-06-29T13:16:35.493Z,23.70
2023-06-29T13:19:18.005Z,23.60
2023-06-29T13:21:59.605Z,23.40
2023-06-29T13:24:28.331Z,23.10
2023-06-29T13:26:59.267Z,22.80
2023-06-29T13:29:32.835Z,22.70
2023-06-29T13:32:07.115Z,22.60
2023-06-29T13:34:39.469Z,22.60
2023-06-29T13:37:10.633Z,22.50
2023-06-29T13:39:46.883Z,22.40
2023-06-29T13:42:21.043Z,22.40
2023-06-29T13:45:29.790Z,22.30
2023-06-29T13:48:10.716Z,22.20
2023-06-29T13:50:54.311Z,22.10
2023-06-29T13:56:38.963Z,22.00
2023-06-29T14:02:30.139Z,21.90
2023-06-29T14:07:54.056Z,21.80
2023-06-29T14:10:33.134Z,21.70
2023-06-29T14:13:13.520Z,21.60
2023-06-29T14:16:15.691Z,21.70
2023-06-29T14:19:29.659Z,21.90
2023-06-29T14:21:58.200Z,22.00
2023-06-29T14:24:36.818Z,22.10
2023-06-29T14:27:19.602Z,22.00
2023-06-29T14:33:10.288Z,21.70
2023-06-29T14:42:14.145Z,21.10
2023-06-29T14:45:33.593Z,20.90
2023-06-29T14:48:23.749Z,20.80
2023-06-29T14:54:27.606Z,20.40
2023-06-29T15:00:38.597Z,19.90
2023-06-29T15:03:58.032Z,19.80
2023-06-29T15:06:41.286Z,19.70
2023-06-29T15:09:27.758Z,19.70
2023-06-29T15:12:17.961Z,19.50
2023-06-29T15:21:52.635Z,19.30
2023-06-29T15:24:44.658Z,19.20
2023-06-29T15:27:37.010Z,19.10
2023-06-29T15:30:23.191Z,19.10
2023-06-29T15:32:57.682Z,19.00
2023-06-29T15:35:43.307Z,19.20
2023-06-29T15:38:42.538Z,19.10
2023-06-29T15:41:25.207Z,19.20
2023-06-29T15:44:08.684Z,19.30
2023-06-29T15:46:55.121Z,19.20
2023-06-29T15:49:32.766Z,19.10
2023-06-29T15:53:25.192Z,18.90
2023-06-29T15:55:56.544Z,18.80
2023-06-29T15:58:31.201Z,18.70
2023-06-29T16:01:01.907Z,18.50
2023-06-29T16:03:30.429Z,18.50
2023-06-29T16:06:04.085Z,18.30
2023-06-29T16:09:09.638Z,18.30
2023-06-29T16:12:05.452Z,18.30
2023-06-29T16:21:40.631Z,18.20
2023-06-29T16:24:14.039Z,18.20
2023-06-29T16:27:11.128Z,18.10
2023-06-29T16:29:46.463Z,18.10
2023-06-29T16:32:25.216Z,18.00
2023-06-29T16:35:23.670Z,18.00
2023-06-29T16:38:34.746Z,17.90
2023-06-29T16:41:15.071Z,17.90
2023-06-29T16:44:00.855Z,17.70
2023-06-29T16:47:32.804Z,17.60
2023-06-29T16:50:06.462Z,17.70
2023-06-29T16:56:44.632Z,17.80
2023-06-29T16:59:39.929Z,17.80
2023-06-29T17:02:43.229Z,17.80
2023-06-29T17:06:17.287Z,17.70
2023-06-29T17:09:27.440Z,17.40
2023-06-29T17:15:30.486Z,17.30
2023-06-29T17:38:16.122Z,17.90
2023-06-29T17:41:58.562Z,17.90
2023-06-29T17:44:58.137Z,18.00
2023-06-29T17:48:14.004Z,18.10
2023-06-29T18:03:01.439Z,18.50
2023-06-29T18:13:26.501Z,18.70
2023-06-29T18:27:30.074Z,18.60
2023-06-29T19:33:42.915Z,18.80
2023-06-29T19:41:06.084Z,18.70
2023-06-29T19:44:23.369Z,18.60
2023-06-29T19:47:33.345Z,18.70
2023-06-29T19:50:51.216Z,18.60
2023-06-29T19:54:19.680Z,18.50
2023-06-29T20:00:36.534Z,18.50
2023-06-29T20:07:31.694Z,18.40
2023-06-29T20:15:09.011Z,18.40
2023-06-29T20:33:03.676Z,18.30
2023-06-29T20:39:05.819Z,18.30
2023-06-29T20:42:22.376Z,18.20
2023-06-29T20:45:33.453Z,18.20
2023-06-29T20:49:04.472Z,18.20
2023-06-29T20:51:40.949Z,18.20
2023-06-29T20:55:03.820Z,18.20
2023-06-29T20:57:47.664Z,18.20
2023-06-29T21:00:58.393Z,18.20
2023-06-29T21:07:14.243Z,18.00
2023-06-29T21:10:20.256Z,18.10
2023-06-29T21:13:19.487Z,18.00
2023-06-29T21:16:46.298Z,18.00
2023-06-29T21:26:43.022Z,17.80
2023-06-29T21:32:42.090Z,17.70
2023-06-29T21:35:48.157Z,17.60
2023-06-29T21:38:50.363Z,17.60
2023-06-29T21:41:36.249Z,17.60
2023-06-29T21:44:55.014Z,17.50
2023-06-29T21:47:54.878Z,17.50
2023-06-29T21:53:35.406Z,17.50
2023-06-29T21:56:35.650Z,17.50
2023-06-29T21:59:43.736Z,17.40
2023-06-29T22:05:26.830Z,17.40
2023-06-29T22:17:50.736Z,17.20
2023-06-29T22:20:41.867Z,17.10
2023-06-29T22:23:14.447Z,17.10
2023-06-29T22:26:25.446Z,17.10
2023-06-29T22:29:27.987Z,17.00
2023-06-29T22:32:21.374Z,17.00
2023-06-29T22:35:11.441Z,17.10
2023-06-29T22:38:09.764Z,16.90
2023-06-29T22:41:02.398Z,16.90
2023-06-29T22:46:54.788Z,16.80
2023-06-29T22:49:32.743Z,16.70
2023-06-29T22:52:03.239Z,16.70
2023-06-29T22:54:42.712Z,16.60
2023-06-29T22:57:18.390Z,16.60
2023-06-29T22:59:46.843Z,16.50
2023-06-29T23:02:15.297Z,16.60
2023-06-29T23:04:50.609Z,16.50
2023-06-29T23:07:19.395Z,16.50
2023-06-29T23:09:49.581Z,16.50
2023-06-29T23:12:22.567Z,16.50
2023-06-29T23:14:55.177Z,16.50
2023-06-29T23:17:28.126Z,16.40
2023-06-29T23:19:58.976Z,16.30
2023-06-29T23:22:30.279Z,16.30
2023-06-29T23:25:01.954Z,16.30
2023-06-29T23:27:30.490Z,16.50
2023-06-29T23:29:58.787Z,16.30
2023-06-29T23:32:27.631Z,16.20
2023-06-29T23:34:55.932Z,16.10
2023-06-29T23:37:26.166Z,16.10
2023-06-29T23:39:55.069Z,16.00
2023-06-29T23:42:24.867Z,15.90
2023-06-29T23:44:53.516Z,15.80
2023-06-29T23:47:21.939Z,15.80
2023-06-29T23:49:50.279Z,15.80
2023-06-29T23:52:18.777Z,15.90
2023-06-29T23:54:47.313Z,15.60
2023-06-29T23:57:16.463Z,15.60
2023-06-29T23:59:46.399Z,15.50
